Time;durP1;ratioP1;P1;durP2;ratioP2;P2;SDS_P1;SDS_P2;PMS_P1;PMS_P2;Temp;Humidity;BMP_temperature;BMP_pressure;BME280_temperature;BME280_humidity;BME280_pressure;Samples;Min_cycle;Max_cycle;Signal;HPM_P1;HPM_P2
2022/07/08 00:00:15;;;;;;;1.20;1.10;;;;;;;-143.84;65.11;45049.06;5052419;28;20458;-77
2022/07/08 00:02:42;;;;;;;1.73;1.30;;;;;;;-143.84;65.41;45026.22;5051462;28;20446;-77
2022/07/08 00:05:10;;;;;;;14.27;2.30;;;;;;;-143.84;65.55;45022.41;5051237;28;20445;-77
2022/07/08 00:07:37;;;;;;;1.83;1.40;;;;;;;-143.84;65.50;45045.25;5051752;28;20924;-76
2022/07/08 00:10:04;;;;;;;5.73;1.37;;;;;;;-143.84;65.71;45035.75;5051758;28;20508;-76
2022/07/08 00:12:32;;;;;;;1.50;1.40;;;;;;;-143.84;65.57;45060.50;5051768;28;21226;-76
2022/07/08 00:14:59;;;;;;;3.27;1.40;;;;;;;-143.84;65.40;45024.31;5051771;28;20516;-75
2022/07/08 00:17:28;;;;;;;1.70;1.60;;;;;;;-143.84;65.90;45030.03;5051582;28;20429;-76
2022/07/08 00:19:55;;;;;;;1.40;1.30;;;;;;;-143.84;65.88;45022.41;5051785;28;20532;-75
2022/07/08 00:22:23;;;;;;;2.27;1.53;;;;;;;-143.84;66.00;45045.25;5051893;28;20504;-75
2022/07/08 00:24:50;;;;;;;2.30;1.60;;;;;;;-143.84;65.94;45037.66;5051925;28;20863;-75
2022/07/08 00:27:17;;;;;;;7.20;1.70;;;;;;;-143.84;66.38;45054.78;5051897;28;20968;-75
2022/07/08 00:29:44;;;;;;;1.90;1.50;;;;;;;-143.84;66.16;45030.03;5051783;28;20472;-75
2022/07/08 00:32:12;;;;;;;2.30;1.23;;;;;;;-143.84;66.39;45039.53;5051251;28;21003;-75
2022/07/08 00:34:40;;;;;;;1.83;1.47;;;;;;;-143.84;66.27;45043.34;5051302;28;20478;-75
2022/07/08 00:37:08;;;;;;;3.73;1.70;;;;;;;-143.84;66.24;45009.09;5051249;28;20446;-75
2022/07/08 00:39:35;;;;;;;2.03;1.67;;;;;;;-143.84;66.53;45031.94;5051652;28;20445;-76
2022/07/08 00:42:03;;;;;;;4.17;1.83;;;;;;;-143.84;66.19;45035.75;5050775;28;20442;-77
2022/07/08 00:44:30;;;;;;;5.70;1.50;;;;;;;-143.84;66.42;45045.25;5051213;28;20445;-77
2022/07/08 00:46:57;;;;;;;4.90;1.87;;;;;;;-143.84;66.18;45026.22;5051055;28;20499;-76
2022/07/08 00:49:24;;;;;;;2.10;1.53;;;;;;;-143.84;66.21;45049.06;5049459;28;20437;-74
2022/07/08 00:51:53;;;;;;;1.43;1.33;;;;;;;-143.84;66.14;45033.84;5049233;28;20437;-74
2022/07/08 00:54:22;;;;;;;1.77;1.67;;;;;;;-143.84;66.31;45064.31;5048636;28;20536;-74
2022/07/08 00:56:50;;;;;;;5.93;2.30;;;;;;;-143.84;66.56;45064.31;5048497;28;20448;-74
2022/07/08 00:59:17;;;;;;;5.60;2.00;;;;;;;-143.84;66.62;45041.44;5048339;28;20449;-74
2022/07/08 01:01:44;;;;;;;5.60;2.13;;;;;;;-143.84;66.71;45030.03;5049845;28;20476;-74
2022/07/08 01:04:11;;;;;;;1.83;1.50;;;;;;;-143.84;66.70;45041.44;5052699;28;20433;-74
2022/07/08 01:06:38;;;;;;;2.47;1.80;;;;;;;-143.84;66.93;45033.84;5052199;28;21231;-74
2022/07/08 01:09:07;;;;;;;2.90;1.10;;;;;;;-143.84;67.21;45054.78;5052472;28;20433;-74
2022/07/08 01:11:35;;;;;;;7.57;2.23;;;;;;;-143.84;67.28;45018.59;5052194;28;20456;-74
2022/07/08 01:14:05;;;;;;;4.10;1.73;;;;;;;-143.84;67.88;45033.84;5051936;28;20477;-74
2022/07/08 01:16:32;;;;;;;1.67;1.57;;;;;;;-143.84;67.96;45039.53;5052171;28;20452;-74
2022/07/08 01:18:59;;;;;;;4.70;1.63;;;;;;;-143.84;68.04;45026.22;5052145;28;20438;-74
2022/07/08 01:21:27;;;;;;;3.30;1.80;;;;;;;-143.84;68.24;45068.13;5052099;28;20472;-74
2022/07/08 01:23:55;;;;;;;3.33;2.33;;;;;;;-143.84;68.48;45030.03;5052056;28;20457;-74
2022/07/08 01:26:22;;;;;;;1.70;1.60;;;;;;;-143.84;68.59;45049.06;5052265;28;20524;-74
2022/07/08 01:28:49;;;;;;;4.03;2.00;;;;;;;-143.84;68.73;45049.06;5052091;28;20442;-74
2022/07/08 01:31:17;;;;;;;2.17;1.90;;;;;;;-143.84;68.98;45037.66;5052119;28;21164;-74
2022/07/08 01:33:44;;;;;;;1.93;1.73;;;;;;;-143.84;69.38;45045.25;5051888;28;20477;-74
2022/07/08 01:36:12;;;;;;;3.30;3.10;;;;;;;-143.84;69.49;45052.88;5050909;28;20455;-73
2022/07/08 01:38:40;;;;;;;7.27;2.20;;;;;;;-143.84;69.77;45003.38;5050679;28;20447;-74
2022/07/08 01:41:08;;;;;;;5.80;2.53;;;;;;;-143.84;70.23;45068.13;5051745;28;20446;-77
2022/07/08 01:43:35;;;;;;;8.50;2.73;;;;;;;-143.84;70.47;45033.84;5053706;28;20445;-77
2022/07/08 01:46:02;;;;;;;2.40;1.90;;;;;;;-143.84;70.68;45056.69;5053959;28;20434;-77
2022/07/08 01:48:29;;;;;;;5.60;2.17;;;;;;;-143.84;70.86;45071.91;5053980;28;20452;-77
2022/07/08 01:50:56;;;;;;;2.73;2.33;;;;;;;-143.84;71.05;45052.88;5054003;28;20442;-77
2022/07/08 01:53:23;;;;;;;2.80;2.50;;;;;;;-143.84;71.33;45033.84;5053901;28;20468;-77
2022/07/08 01:55:52;;;;;;;3.83;2.40;;;;;;;-143.84;71.53;45039.53;5053947;28;20788;-77
2022/07/08 01:58:19;;;;;;;2.27;2.13;;;;;;;-143.84;71.51;45043.34;5053610;28;20453;-76
2022/07/08 02:00:46;;;;;;;2.90;2.67;;;;;;;-143.84;71.65;45049.06;5053850;28;20473;-77
2022/07/08 02:03:13;;;;;;;2.13;2.03;;;;;;;-143.84;71.53;45033.84;5054127;28;20507;-77
2022/07/08 02:05:40;;;;;;;10.53;2.77;;;;;;;-143.84;71.36;45041.44;5054110;28;20896;-77
2022/07/08 02:08:08;;;;;;;2.90;2.57;;;;;;;-143.84;71.62;45062.41;5053921;28;20438;-77
2022/07/08 02:13:17;;;;;;;2.60;2.40;;;;;;;-143.84;71.38;45024.31;5052548;28;20414;-77
2022/07/08 02:15:45;;;;;;;9.97;2.40;;;;;;;-143.84;71.36;45054.78;5053202;28;20453;-77
2022/07/08 02:18:12;;;;;;;2.53;2.33;;;;;;;-143.84;71.36;45062.41;5053241;28;20446;-77
2022/07/08 02:20:39;;;;;;;8.53;3.00;;;;;;;-143.84;71.57;45037.66;5053525;28;20430;-77
2022/07/08 02:23:06;;;;;;;2.40;2.20;;;;;;;-143.84;71.61;45052.88;5053676;28;20769;-77
2022/07/08 02:25:34;;;;;;;3.03;2.73;;;;;;;-143.84;71.29;45070.00;5053501;28;20517;-77
2022/07/08 02:28:01;;;;;;;4.37;2.67;;;;;;;-143.84;71.49;45056.69;5053543;28;20433;-77
2022/07/08 02:30:30;;;;;;;2.87;2.67;;;;;;;-143.84;71.10;45041.44;5053048;28;20489;-77
2022/07/08 02:32:57;;;;;;;2.67;2.47;;;;;;;-143.84;71.31;45056.69;5052670;28;20492;-77
2022/07/08 02:35:24;;;;;;;3.27;2.97;;;;;;;-143.84;71.41;45050.97;5052663;28;20469;-77
2022/07/08 02:37:51;;;;;;;2.53;2.37;;;;;;;-143.84;71.40;45070.00;5052936;28;20441;-77
2022/07/08 02:40:19;;;;;;;2.63;2.43;;;;;;;-143.84;71.31;45047.16;5052468;28;20445;-77
2022/07/08 02:42:46;;;;;;;2.70;2.50;;;;;;;-143.84;71.11;45071.91;5052922;28;20427;-77
2022/07/08 02:45:13;;;;;;;2.80;2.70;;;;;;;-143.84;71.38;45030.03;5052588;28;20488;-77
2022/07/08 02:47:42;;;;;;;4.40;2.23;;;;;;;-143.84;71.46;45047.16;5052963;28;20453;-77
2022/07/08 02:50:10;;;;;;;6.30;2.40;;;;;;;-143.84;71.14;45045.25;5052499;28;20460;-77
2022/07/08 02:52:37;;;;;;;4.70;2.93;;;;;;;-143.84;71.31;45049.06;5052725;28;20946;-77
2022/07/08 02:55:05;;;;;;;7.07;3.33;;;;;;;-143.84;71.48;45030.03;5052594;28;21008;-77
2022/07/08 02:57:32;;;;;;;2.77;2.57;;;;;;;-143.84;71.31;45033.84;5051541;28;20947;-75
2022/07/08 02:59:59;;;;;;;3.70;2.57;;;;;;;-143.84;71.40;45028.13;5050483;28;20464;-74
2022/07/08 03:02:26;;;;;;;3.60;3.30;;;;;;;-143.84;71.12;45010.97;5050124;28;20449;-74
2022/07/08 03:04:55;;;;;;;4.40;2.93;;;;;;;-143.84;71.33;45052.88;5050091;28;21010;-74
2022/07/08 03:07:22;;;;;;;6.53;2.50;;;;;;;-143.84;71.20;45054.78;5050263;28;20521;-74
2022/07/08 03:09:49;;;;;;;2.60;2.40;;;;;;;-143.84;71.07;45047.16;5050029;28;20445;-74
2022/07/08 03:12:17;;;;;;;3.37;2.03;;;;;;;-143.84;70.93;45049.06;5050096;28;20434;-74
2022/07/08 03:14:44;;;;;;;2.70;2.10;;;;;;;-143.84;71.07;45064.31;5049844;28;20477;-74
2022/07/08 03:17:11;;;;;;;2.70;2.50;;;;;;;-143.84;70.91;45039.53;5050267;28;20441;-74
2022/07/08 03:19:38;;;;;;;2.63;2.53;;;;;;;-143.84;70.85;45073.81;5050400;28;20449;-74
2022/07/08 03:22:07;;;;;;;3.60;2.50;;;;;;;-143.84;70.64;45062.41;5050030;28;20969;-76
2022/07/08 03:24:34;;;;;;;5.77;2.20;;;;;;;-143.84;70.32;45052.88;5049017;28;20445;-75
2022/07/08 03:27:01;;;;;;;6.20;2.27;;;;;;;-143.84;70.63;45047.16;5049551;28;20472;-75
2022/07/08 03:29:28;;;;;;;2.43;1.90;;;;;;;-143.84;70.14;45026.22;5050275;28;20453;-77
2022/07/08 03:31:55;;;;;;;2.43;2.23;;;;;;;-143.84;69.86;45041.44;5050081;28;20477;-77
2022/07/08 03:34:22;;;;;;;4.40;2.07;;;;;;;-143.84;70.12;45037.66;5049725;28;20484;-75
2022/07/08 03:36:49;;;;;;;3.40;2.13;;;;;;;-143.84;70.06;45064.31;5049550;28;20441;-75
2022/07/08 03:39:18;;;;;;;3.93;2.23;;;;;;;-143.84;69.97;45035.75;5049693;28;20441;-75
2022/07/08 03:41:44;;;;;;;2.57;2.10;;;;;;;-143.84;69.67;45049.06;5049558;28;20499;-75
2022/07/08 03:44:12;;;;;;;2.50;2.30;;;;;;;-143.84;70.20;45031.94;5049259;28;20948;-75
2022/07/08 03:46:39;;;;;;;7.00;2.73;;;;;;;-143.84;70.23;45033.84;5049657;28;20446;-75
2022/07/08 03:49:06;;;;;;;2.80;2.60;;;;;;;-143.84;70.59;45054.78;5049943;28;20427;-75
2022/07/08 03:51:35;;;;;;;2.50;2.10;;;;;;;-143.84;70.57;45043.34;5049201;28;20857;-75
2022/07/08 03:54:02;;;;;;;7.87;2.23;;;;;;;-143.84;70.57;45050.97;5049577;28;20527;-75
2022/07/08 03:56:30;;;;;;;4.70;2.90;;;;;;;-143.84;70.35;45071.91;5049439;28;20959;-75
2022/07/08 03:58:57;;;;;;;2.70;2.50;;;;;;;-143.84;70.76;45016.69;5049435;28;20512;-76
2022/07/08 04:01:25;;;;;;;8.30;2.57;;;;;;;-143.84;70.84;45041.44;5049414;28;20472;-75
2022/07/08 04:03:52;;;;;;;7.13;2.70;;;;;;;-143.84;70.54;45068.13;5049470;28;20453;-75
2022/07/08 04:06:19;;;;;;;8.33;2.77;;;;;;;-143.84;70.73;45033.84;5049532;28;20500;-75
2022/07/08 04:08:46;;;;;;;8.50;3.07;;;;;;;-143.84;70.26;45031.94;5049300;28;20437;-75
2022/07/08 04:11:13;;;;;;;2.87;2.67;;;;;;;-143.84;69.79;45031.94;5049432;28;20453;-75
2022/07/08 04:13:42;;;;;;;3.17;2.57;;;;;;;-143.84;69.68;45012.88;5049237;28;20456;-75
2022/07/08 04:16:12;;;;;;;2.60;2.40;;;;;;;-143.84;69.46;45030.03;5049414;28;21356;-76
2022/07/08 04:18:40;;;;;;;4.63;2.70;;;;;;;-143.84;69.58;45047.16;5049418;28;20441;-76
2022/07/08 04:21:08;;;;;;;3.07;2.77;;;;;;;-143.84;69.55;45049.06;5049039;28;20509;-75
2022/07/08 04:23:35;;;;;;;3.23;2.97;;;;;;;-143.84;69.25;45041.44;5048860;28;20453;-75
2022/07/08 04:26:03;;;;;;;2.27;2.17;;;;;;;-143.84;68.82;45064.31;5049086;28;20496;-75
2022/07/08 04:28:30;;;;;;;4.57;2.77;;;;;;;-143.84;68.97;45041.44;5049032;28;20814;-75
2022/07/08 04:30:59;;;;;;;2.97;2.77;;;;;;;-143.84;68.89;45054.78;5048777;28;20503;-75
2022/07/08 04:33:26;;;;;;;6.37;2.50;;;;;;;-143.84;68.32;45018.59;5048913;28;20990;-76
2022/07/08 04:35:53;;;;;;;4.70;2.40;;;;;;;-143.84;68.04;45041.44;5048369;28;20919;-75
2022/07/08 04:38:21;;;;;;;9.57;2.80;;;;;;;-143.84;68.25;45041.44;5052961;28;20441;-75
2022/07/08 04:40:48;;;;;;;2.40;2.20;;;;;;;-143.84;68.01;45039.53;5052897;28;20943;-75
2022/07/08 04:43:15;;;;;;;9.80;2.70;;;;;;;-143.84;67.59;45018.59;5052870;28;20438;-75
2022/07/08 04:45:42;;;;;;;4.20;2.30;;;;;;;-143.84;67.46;45073.81;5052969;28;20955;-75
2022/07/08 04:48:11;;;;;;;3.83;2.87;;;;;;;-143.84;67.27;45010.97;5055096;28;20500;-78
2022/07/08 04:50:38;;;;;;;2.83;2.20;;;;;;;-143.84;67.02;45030.03;5054760;28;20970;-75
2022/07/08 04:53:05;;;;;;;4.13;2.40;;;;;;;-143.84;67.19;45031.94;5055329;28;20491;-75
2022/07/08 04:55:32;;;;;;;8.30;2.60;;;;;;;-143.84;66.71;45026.22;5054894;28;20480;-75
2022/07/08 04:58:00;;;;;;;3.07;2.40;;;;;;;-143.84;66.47;45030.03;5055717;28;20426;-77
2022/07/08 05:00:28;;;;;;;2.33;2.23;;;;;;;-143.84;66.78;45039.53;5055462;28;20437;-75
2022/07/08 05:02:56;;;;;;;4.60;2.50;;;;;;;-143.84;66.41;45014.78;5055081;28;20434;-76
2022/07/08 05:05:26;;;;;;;2.70;2.50;;;;;;;-143.84;66.02;45024.31;5055743;28;20835;-75
2022/07/08 05:07:53;;;;;;;3.20;2.10;;;;;;;-143.84;66.16;45047.16;5055714;28;20434;-76
2022/07/08 05:10:22;;;;;;;3.47;2.43;;;;;;;-143.84;65.84;45056.69;5055703;28;20752;-75
2022/07/08 05:12:50;;;;;;;2.57;2.37;;;;;;;-143.84;65.65;45010.97;5053510;28;20444;-75
2022/07/08 05:15:18;;;;;;;3.20;2.43;;;;;;;-143.84;65.10;45026.22;5052399;28;20991;-75
2022/07/08 05:17:46;;;;;;;3.50;2.20;;;;;;;-143.84;65.02;45031.94;5052438;28;20962;-75
2022/07/08 05:20:13;;;;;;;11.53;3.27;;;;;;;-143.84;65.08;45054.78;5052017;28;20441;-74
2022/07/08 05:22:42;;;;;;;4.83;2.43;;;;;;;-143.84;64.89;45016.69;5052024;28;20492;-75
2022/07/08 05:25:10;;;;;;;3.37;2.70;;;;;;;-143.84;64.11;45026.22;5052061;28;20537;-74
2022/07/08 05:27:38;;;;;;;3.43;2.70;;;;;;;-143.84;63.88;45031.94;5052209;28;20886;-75
2022/07/08 05:30:07;;;;;;;5.27;2.30;;;;;;;-143.84;63.57;45020.50;5052139;28;20500;-75
2022/07/08 05:32:34;;;;;;;2.30;2.20;;;;;;;-143.84;63.77;45018.59;5051658;28;20473;-75
2022/07/08 05:35:02;;;;;;;9.03;2.70;;;;;;;-143.84;63.30;45050.97;5051925;28;20504;-75
2022/07/08 05:37:30;;;;;;;2.13;2.03;;;;;;;-143.84;63.03;45030.03;5053761;28;20440;-75
2022/07/08 05:39:59;;;;;;;3.10;2.70;;;;;;;-143.84;62.36;45022.41;5053863;28;20850;-75
2022/07/08 05:42:26;;;;;;;10.73;2.57;;;;;;;-143.84;62.15;45009.09;5057913;28;21020;-75
2022/07/08 05:44:53;;;;;;;6.90;2.70;;;;;;;-143.84;61.40;45026.22;5073822;28;20436;-75
2022/07/08 05:47:20;;;;;;;2.77;2.57;;;;;;;-143.84;61.01;45003.38;5073323;28;20444;-75
2022/07/08 05:49:48;;;;;;;2.37;2.20;;;;;;;-143.84;60.73;45009.09;5073974;28;20445;-75
2022/07/08 05:52:15;;;;;;;4.37;2.63;;;;;;;-143.84;60.07;45003.38;5074504;28;20896;-75
2022/07/08 05:54:45;;;;;;;11.30;2.80;;;;;;;-143.84;58.41;44993.84;5073340;28;20487;-75
2022/07/08 05:57:14;;;;;;;4.23;2.17;;;;;;;-143.84;58.09;45018.59;5070639;28;20447;-75
2022/07/08 05:59:42;;;;;;;12.40;2.37;;;;;;;-143.84;57.62;44997.66;5070562;28;20464;-75
2022/07/08 06:02:09;;;;;;;7.63;2.67;;;;;;;-143.84;57.84;44980.53;5074140;28;20796;-76
2022/07/08 06:04:36;;;;;;;7.33;2.70;;;;;;;-143.84;56.91;44993.84;5073927;28;20923;-75
2022/07/08 06:07:04;;;;;;;5.10;2.40;;;;;;;-143.84;55.07;45005.28;5074023;28;20778;-75
2022/07/08 06:09:31;;;;;;;3.53;2.13;;;;;;;-143.84;55.23;44974.81;5074042;28;21432;-75
2022/07/08 06:11:58;;;;;;;3.47;2.20;;;;;;;-143.84;54.47;44988.13;5073962;28;21255;-75
2022/07/08 06:14:27;;;;;;;5.00;1.80;;;;;;;-143.84;54.46;44999.56;5073736;28;21120;-75
2022/07/08 06:16:54;;;;;;;2.47;2.30;;;;;;;-143.84;54.75;44988.13;5073900;28;20494;-75
2022/07/08 06:19:22;;;;;;;2.43;2.17;;;;;;;-143.84;54.24;44997.66;5073994;28;20425;-75
2022/07/08 06:21:50;;;;;;;6.50;2.00;;;;;;;-143.84;54.69;44999.56;5073656;28;21054;-74
2022/07/08 06:24:17;;;;;;;2.03;1.93;;;;;;;-143.84;55.33;44982.41;5073420;28;20444;-74
2022/07/08 06:26:46;;;;;;;6.83;2.00;;;;;;;-143.84;55.19;45003.38;5073537;28;20437;-75
2022/07/08 06:29:13;;;;;;;6.53;2.00;;;;;;;-143.84;54.45;45003.38;5073901;28;20447;-75
2022/07/08 06:31:42;;;;;;;10.47;2.60;;;;;;;-143.84;54.02;44972.91;5073781;28;20530;-76
2022/07/08 06:34:09;;;;;;;7.27;2.80;;;;;;;-143.84;54.00;44999.56;5073752;28;20441;-75
2022/07/08 06:36:37;;;;;;;3.67;2.20;;;;;;;-143.84;52.97;45010.97;5073415;28;21079;-76
2022/07/08 06:39:04;;;;;;;5.10;2.20;;;;;;;-143.84;52.11;45009.09;5073357;28;20429;-75
2022/07/08 06:41:32;;;;;;;3.73;2.10;;;;;;;-143.84;50.59;44969.09;5073293;28;20445;-75
2022/07/08 06:43:59;;;;;;;8.93;2.10;;;;;;;-143.84;49.50;44995.75;5073094;28;20991;-75
2022/07/08 06:46:26;;;;;;;4.77;2.30;;;;;;;-143.84;48.59;44961.47;5073388;28;20520;-75
2022/07/08 06:48:55;;;;;;;5.50;1.80;;;;;;;-143.84;48.39;44986.22;5072822;28;20456;-76
2022/07/08 06:51:22;;;;;;;1.70;1.60;;;;;;;-143.84;48.91;44974.81;5072687;28;20910;-75
2022/07/08 06:56:36;;;;;;;2.73;2.10;;;;;;;-143.84;48.88;44974.81;5038072;28;20482;-75
2022/07/08 06:59:06;;;;;;;20.17;2.40;;;;;;;-143.84;48.06;44978.63;5071693;28;20457;-75
2022/07/08 07:01:33;;;;;;;4.33;1.73;;;;;;;-143.84;47.87;45001.47;5072198;28;20545;-75
2022/07/08 07:04:03;;;;;;;4.90;1.90;;;;;;;-143.84;48.11;44974.81;5056454;28;21132;-75
2022/07/08 07:06:30;;;;;;;4.63;1.60;;;;;;;-143.84;47.69;44965.28;5052767;28;20446;-75
2022/07/08 07:08:57;;;;;;;2.90;1.53;;;;;;;-143.84;47.32;45010.97;5052640;28;20919;-75
2022/07/08 07:11:25;;;;;;;3.93;2.50;;;;;;;-143.84;47.26;44988.13;5052555;28;20908;-75
2022/07/08 07:13:52;;;;;;;4.53;1.87;;;;;;;-143.84;47.32;44948.16;5052821;28;20430;-76
2022/07/08 07:16:19;;;;;;;2.40;2.20;;;;;;;-143.84;47.08;44974.81;5052480;28;20999;-76
2022/07/08 07:18:46;;;;;;;2.47;1.70;;;;;;;-143.84;46.16;44942.44;5052645;28;20483;-76
2022/07/08 07:21:15;;;;;;;4.97;2.00;;;;;;;-143.84;46.15;44957.66;5052249;28;20434;-75
2022/07/08 07:23:42;;;;;;;3.10;2.40;;;;;;;-143.84;45.10;44953.88;5052362;28;20948;-75
2022/07/08 07:26:09;;;;;;;1.83;1.73;;;;;;;-143.84;45.27;44957.66;5052856;28;20438;-75
2022/07/08 07:28:36;;;;;;;18.03;2.20;;;;;;;-143.84;44.81;44940.53;5052192;28;20468;-74
2022/07/08 07:31:04;;;;;;;9.83;2.27;;;;;;;-143.84;44.77;44950.06;5051688;28;20535;-75
2022/07/08 07:33:31;;;;;;;10.30;2.17;;;;;;;-143.84;45.27;44984.31;5051692;28;20450;-75
2022/07/08 07:35:58;;;;;;;8.23;2.70;;;;;;;-143.84;45.44;44959.56;5052428;28;20481;-75
2022/07/08 07:38:28;;;;;;;6.73;2.67;;;;;;;-143.84;46.41;44929.09;5051818;28;20434;-78
2022/07/08 07:40:55;;;;;;;4.60;2.00;;;;;;;-143.84;44.92;44950.06;5051650;28;20805;-78
2022/07/08 07:43:23;;;;;;;3.07;2.57;;;;;;;-143.84;45.15;44946.25;5051209;28;20476;-77
2022/07/08 07:45:50;;;;;;;3.80;2.13;;;;;;;-143.84;43.97;44923.41;5051119;28;20932;-78
2022/07/08 07:48:17;;;;;;;6.30;1.80;;;;;;;-143.84;42.90;44913.88;5051700;28;20516;-79
2022/07/08 07:50:44;;;;;;;7.43;1.87;;;;;;;-143.84;43.10;44942.44;5051657;28;20473;-78
2022/07/08 07:53:12;;;;;;;8.20;2.03;;;;;;;-143.84;42.54;44911.97;5051099;28;20442;-78
2022/07/08 07:55:40;;;;;;;6.73;1.90;;;;;;;-143.84;42.82;44902.44;5051619;28;20473;-79
2022/07/08 07:58:07;;;;;;;5.03;2.03;;;;;;;-143.84;41.12;44919.59;5051544;28;20446;-79
2022/07/08 08:00:35;;;;;;;3.10;2.20;;;;;;;-143.84;40.61;44923.41;5050382;28;20449;-79
2022/07/08 08:03:02;;;;;;;3.90;1.70;;;;;;;-143.84;41.64;44891.03;5050660;28;20449;-78
2022/07/08 08:05:29;;;;;;;2.87;1.90;;;;;;;-143.84;40.86;44906.25;5051215;28;20511;-78
2022/07/08 08:07:56;;;;;;;2.13;1.93;;;;;;;-143.84;40.66;44898.66;5051123;28;20438;-78
2022/07/08 08:10:23;;;;;;;2.93;2.30;;;;;;;-143.84;40.51;44881.50;5050520;28;20511;-78
2022/07/08 08:12:52;;;;;;;3.00;2.10;;;;;;;-143.84;41.11;44875.78;5051533;28;20517;-78
2022/07/08 08:15:19;;;;;;;6.07;2.63;;;;;;;-143.84;40.56;44860.56;5050828;28;20477;-76
2022/07/08 08:17:46;;;;;;;12.00;2.23;;;;;;;-143.84;39.17;44883.41;5051421;28;20437;-75
2022/07/08 08:20:14;;;;;;;8.83;2.13;;;;;;;-143.84;37.92;44875.78;5052459;28;20449;-74
2022/07/08 08:22:41;;;;;;;2.60;2.40;;;;;;;-143.84;38.41;44866.28;5063563;28;20455;-73
2022/07/08 08:25:10;;;;;;;2.00;1.83;;;;;;;-143.84;39.00;44892.94;5069520;28;20432;-73
2022/07/08 08:27:40;;;;;;;4.53;2.17;;;;;;;-143.84;40.09;44911.97;5068089;28;20456;-73
2022/07/08 08:30:12;;;;;;;3.07;2.60;;;;;;;-143.84;39.10;44873.88;5068197;28;20433;-74
2022/07/08 08:32:39;;;;;;;2.20;1.90;;;;;;;-143.84;38.24;44854.84;5067886;28;20807;-73
2022/07/08 08:35:08;;;;;;;2.33;2.07;;;;;;;-143.84;38.77;44877.69;5068359;28;20441;-73
2022/07/08 08:37:36;;;;;;;4.30;2.00;;;;;;;-143.84;39.16;44883.41;5067844;28;20532;-73
2022/07/08 08:40:04;;;;;;;2.37;2.10;;;;;;;-143.84;38.86;44870.09;5066714;28;20510;-73
2022/07/08 08:42:32;;;;;;;4.10;2.57;;;;;;;-143.84;38.50;44877.69;5066250;28;20449;-73
2022/07/08 08:44:59;;;;;;;2.90;2.23;;;;;;;-143.84;38.67;44870.09;5066603;28;20856;-73
2022/07/08 08:47:29;;;;;;;3.13;2.10;;;;;;;-143.84;39.09;44870.09;5066513;28;20479;-73
2022/07/08 08:50:53;;;;;;;4.80;1.90;;;;;;;-143.84;38.41;44864.38;5066493;28;20533;-73
2022/07/08 08:52:48;;;;;;;3.33;2.27;;;;;;;-143.84;38.84;44877.69;5067435;28;20509;-73
2022/07/08 08:55:20;;;;;;;3.83;2.63;;;;;;;-143.84;37.92;44870.09;5068783;28;20436;-73
2022/07/08 08:57:47;;;;;;;4.67;2.43;;;;;;;-143.84;38.78;44858.66;5068933;28;20433;-73
2022/07/08 09:00:15;;;;;;;4.60;2.33;;;;;;;-143.84;37.81;44870.09;5068840;28;20444;-73
2022/07/08 09:02:43;;;;;;;9.40;2.10;;;;;;;-143.84;37.87;44860.56;5069168;28;20510;-73
2022/07/08 09:05:11;;;;;;;10.50;2.10;;;;;;;-143.84;38.47;44862.47;5069091;28;20453;-73
2022/07/08 09:07:38;;;;;;;4.03;2.23;;;;;;;-143.84;39.35;44854.84;5069224;28;20440;-73
2022/07/08 09:10:07;;;;;;;9.63;2.20;;;;;;;-143.84;38.84;44854.84;5068977;28;20446;-73
2022/07/08 09:12:34;;;;;;;2.57;2.37;;;;;;;-143.84;39.09;44841.53;5068825;28;21302;-74
2022/07/08 09:15:02;;;;;;;3.87;2.00;;;;;;;-143.84;37.76;44870.09;5069175;28;20444;-73
2022/07/08 09:17:29;;;;;;;2.60;2.40;;;;;;;-143.84;39.18;44826.28;5068832;28;20476;-73
2022/07/08 09:19:58;;;;;;;9.23;1.87;;;;;;;-143.84;37.81;44891.03;5068799;28;20966;-73
2022/07/08 09:22:25;;;;;;;4.40;2.03;;;;;;;-143.84;38.95;44851.03;5069622;28;20456;-74
2022/07/08 09:24:53;;;;;;;1.90;1.80;;;;;;;-143.84;37.72;44828.19;5072434;28;20510;-73
2022/07/08 09:27:20;;;;;;;3.03;2.10;;;;;;;-143.84;37.04;44871.97;5072002;28;20429;-73
2022/07/08 09:29:59;;;;;;;3.07;2.03;;;;;;;-143.84;36.88;44877.69;5072545;28;20445;-73
2022/07/08 09:32:27;;;;;;;2.87;1.60;;;;;;;-143.84;37.80;44854.84;5072280;28;20884;-73
2022/07/08 09:34:54;;;;;;;3.10;2.13;;;;;;;-143.84;37.33;44864.38;5072085;28;20476;-73
2022/07/08 09:37:23;;;;;;;10.73;1.73;;;;;;;-143.84;37.85;44824.38;5072187;28;20537;-73
2022/07/08 09:39:50;;;;;;;2.37;1.87;;;;;;;-143.84;37.84;44877.69;5072065;28;20444;-73
2022/07/08 09:42:17;;;;;;;2.03;1.73;;;;;;;-143.84;38.31;44860.56;5072260;28;20437;-73
2022/07/08 09:44:52;;;;;;;9.20;2.10;;;;;;;-143.84;37.26;44868.19;5072087;28;20479;-73
2022/07/08 09:47:19;;;;;;;2.53;1.70;;;;;;;-143.84;38.69;44871.97;5072273;28;20979;-73
2022/07/08 09:49:47;;;;;;;6.57;2.30;;;;;;;-143.84;38.95;44851.03;5072431;28;20518;-74
2022/07/08 09:52:23;;;;;;;6.40;1.87;;;;;;;-143.84;39.40;44839.63;5071977;28;20864;-73
2022/07/08 09:55:02;;;;;;;5.13;1.87;;;;;;;-143.84;37.53;44870.09;5071623;28;20950;-73
2022/07/08 09:57:30;;;;;;;5.57;1.50;;;;;;;-143.84;38.37;44833.91;5071812;28;20492;-73
2022/07/08 09:59:58;;;;;;;2.27;1.93;;;;;;;-143.84;36.99;44843.44;5072399;28;20499;-73
2022/07/08 10:02:25;;;;;;;1.60;1.40;;;;;;;-143.84;36.74;44866.28;5071619;28;21224;-73
2022/07/08 10:04:53;;;;;;;1.80;1.53;;;;;;;-143.84;37.18;44852.94;5071671;28;20449;-73
2022/07/08 10:07:20;;;;;;;7.30;2.33;;;;;;;-143.84;38.03;44849.13;5072076;28;20437;-73
2022/07/08 10:09:48;;;;;;;3.10;1.80;;;;;;;-143.84;37.96;44877.69;5071836;28;20430;-74
2022/07/08 10:12:16;;;;;;;6.57;2.30;;;;;;;-143.84;38.58;44854.84;5072368;28;20440;-74
2022/07/08 10:14:47;;;;;;;2.50;1.87;;;;;;;-143.84;37.33;44852.94;5072451;28;20445;-74
2022/07/08 10:17:18;;;;;;;8.73;1.60;;;;;;;-143.84;36.36;44852.94;5071918;28;20516;-77
2022/07/08 10:19:47;;;;;;;2.33;1.93;;;;;;;-143.84;38.76;44858.66;5070940;28;20472;-79
2022/07/08 10:22:17;;;;;;;2.37;2.17;;;;;;;-143.84;38.32;44845.31;5067938;28;20437;-79
2022/07/08 10:24:46;;;;;;;2.47;1.80;;;;;;;-143.84;37.16;44839.63;5063656;28;20450;-79
2022/07/08 10:27:15;;;;;;;3.30;2.10;;;;;;;-143.84;37.02;44845.31;5071238;28;20892;-79
2022/07/08 10:29:42;;;;;;;1.90;1.80;;;;;;;-143.84;38.40;44862.47;5071640;28;20458;-79
2022/07/08 10:32:24;;;;;;;4.30;2.13;;;;;;;-143.84;38.42;44862.47;5071564;28;20484;-79
2022/07/08 10:35:10;;;;;;;5.00;1.83;;;;;;;-143.84;37.41;44847.22;5066251;28;20540;-79
2022/07/08 10:37:47;;;;;;;2.30;2.10;;;;;;;-143.84;36.93;44849.13;5066497;28;20516;-79
2022/07/08 10:40:41;;;;;;;2.10;2.00;;;;;;;-143.84;37.80;44862.47;5070099;28;20465;-79
2022/07/08 10:43:22;;;;;;;1.90;1.77;;;;;;;-143.84;36.72;44870.09;5070083;28;20445;-79
2022/07/08 10:46:03;;;;;;;2.90;1.97;;;;;;;-143.84;38.33;44877.69;5067088;28;20464;-79
2022/07/08 10:48:46;;;;;;;2.17;1.97;;;;;;;-143.84;36.64;44862.47;5070879;28;20490;-79
2022/07/08 10:51:54;;;;;;;11.13;2.60;;;;;;;-143.84;34.70;44862.47;5071335;28;20449;-79
2022/07/08 10:54:29;;;;;;;1.70;1.60;;;;;;;-143.84;36.81;44847.22;5033155;28;20457;-74
2022/07/08 10:56:58;;;;;;;2.33;1.73;;;;;;;-143.84;37.32;44839.63;5068333;28;20575;-74
2022/07/08 10:59:29;;;;;;;3.60;1.97;;;;;;;-143.84;36.28;44832.00;5066450;28;20490;-74
2022/07/08 11:01:57;;;;;;;3.43;2.00;;;;;;;-143.84;35.05;44822.47;5062358;28;20882;-74
2022/07/08 11:04:31;;;;;;;2.30;1.83;;;;;;;-143.84;34.68;44835.81;5070518;28;20508;-74
2022/07/08 11:07:28;;;;;;;1.53;1.43;;;;;;;-143.84;35.59;44830.09;5069598;28;20531;-74
2022/07/08 11:10:04;;;;;;;1.73;1.63;;;;;;;-143.84;35.79;44849.13;5068739;28;20465;-74
2022/07/08 11:12:33;;;;;;;3.10;1.60;;;;;;;-143.84;35.68;44839.63;5062111;28;20444;-74
2022/07/08 11:15:05;;;;;;;7.73;1.80;;;;;;;-143.84;36.75;44864.38;5065697;28;20518;-74
2022/07/08 11:17:34;;;;;;;3.30;2.27;;;;;;;-143.84;35.00;44860.56;5070339;28;20492;-74
2022/07/08 11:20:05;;;;;;;2.40;2.30;;;;;;;-143.84;35.24;44877.69;5070413;28;20456;-74
2022/07/08 11:22:36;;;;;;;2.67;2.07;;;;;;;-143.84;36.64;44849.13;5071134;28;20445;-74
2022/07/08 11:25:04;;;;;;;2.30;2.10;;;;;;;-143.84;36.13;44828.19;5070161;28;20449;-74
2022/07/08 11:27:33;;;;;;;5.27;2.10;;;;;;;-143.84;35.31;44849.13;5070650;28;20601;-74